createdAt,value
2023-04-09T00:01:40.122Z,8.92
2023-04-09T00:05:52.845Z,8.87
2023-04-09T00:10:06.427Z,8.81
2023-04-09T00:14:18.713Z,8.75
2023-04-09T00:18:31.060Z,8.66
2023-04-09T00:22:43.598Z,8.64
2023-04-09T00:26:56.021Z,8.69
2023-04-09T00:31:08.567Z,8.65
2023-04-09T00:35:20.908Z,8.67
2023-04-09T00:39:33.329Z,8.65
2023-04-09T00:43:45.995Z,8.72
2023-04-09T00:47:58.669Z,8.81
2023-04-09T00:52:11.557Z,8.95
2023-04-09T00:56:25.248Z,9.10
2023-04-09T01:00:39.077Z,9.11
2023-04-09T01:04:51.697Z,9.15
2023-04-09T01:09:08.497Z,8.99
2023-04-09T01:14:10.694Z,9.01
2023-04-09T01:18:43.482Z,9.07
2023-04-09T01:23:07.944Z,8.90
2023-04-09T01:27:20.658Z,8.76
2023-04-09T01:31:44.572Z,8.65
2023-04-09T01:35:58.102Z,8.53
2023-04-09T01:40:11.057Z,8.58
2023-04-09T01:44:24.914Z,8.76
2023-04-09T01:48:40.744Z,8.74
2023-04-09T01:52:53.713Z,8.55
2023-04-09T01:57:06.267Z,8.34
2023-04-09T02:01:27.060Z,8.25
2023-04-09T02:05:44.905Z,8.26
2023-04-09T02:10:01.287Z,8.36
2023-04-09T02:14:13.982Z,8.51
2023-04-09T02:18:31.296Z,8.42
2023-04-09T02:22:43.740Z,8.34
2023-04-09T02:26:56.268Z,8.39
2023-04-09T02:31:08.590Z,8.43
2023-04-09T02:35:21.033Z,8.50
2023-04-09T02:39:33.574Z,8.50
2023-04-09T02:43:45.931Z,8.47
2023-04-09T02:47:58.356Z,8.35
2023-04-09T02:52:11.626Z,8.58
2023-04-09T02:56:24.298Z,8.49
2023-04-09T03:00:37.713Z,8.45
2023-04-09T03:04:50.126Z,8.38
2023-04-09T03:09:02.429Z,8.27
2023-04-09T03:13:16.246Z,8.27
2023-04-09T03:17:29.468Z,8.07
2023-04-09T03:21:41.915Z,7.93
2023-04-09T03:26:05.210Z,8.10
2023-04-09T03:30:24.797Z,7.98
2023-04-09T03:34:37.345Z,8.06
2023-04-09T03:38:51.302Z,8.03
2023-04-09T03:43:12.143Z,7.88
2023-04-09T03:47:33.187Z,7.81
2023-04-09T03:51:46.119Z,7.85
2023-04-09T03:55:59.422Z,7.82
2023-04-09T04:00:12.898Z,8.05
2023-04-09T04:04:54.816Z,8.25
2023-04-09T04:09:09.741Z,8.17
2023-04-09T04:13:30.408Z,8.09
2023-04-09T04:17:43.972Z,8.13
2023-04-09T04:22:04.951Z,8.01
2023-04-09T04:26:21.224Z,8.09
2023-04-09T04:30:33.741Z,8.20
2023-04-09T04:34:52.490Z,8.31
2023-04-09T04:39:11.060Z,8.26
2023-04-09T04:43:43.976Z,7.99
2023-04-09T04:48:04.263Z,8.09
2023-04-09T04:52:17.875Z,8.04
2023-04-09T04:56:35.509Z,8.04
2023-04-09T05:00:55.029Z,8.25
2023-04-09T05:05:07.890Z,8.45
2023-04-09T05:09:26.051Z,8.62
2023-04-09T05:13:45.090Z,8.84
2023-04-09T05:17:58.556Z,9.04
2023-04-09T05:22:11.752Z,9.21
2023-04-09T05:26:24.822Z,9.38
2023-04-09T05:30:40.919Z,9.55
2023-04-09T05:34:54.454Z,9.57
2023-04-09T05:39:07.288Z,9.88
2023-04-09T05:43:19.624Z,9.86
2023-04-09T05:47:33.094Z,10.02
2023-04-09T05:51:54.497Z,10.08
2023-04-09T05:56:15.992Z,10.25
2023-04-09T06:00:38.300Z,10.40
2023-04-09T06:04:51.049Z,10.48
2023-04-09T06:09:03.996Z,10.54
2023-04-09T06:13:16.463Z,10.80
2023-04-09T06:17:30.983Z,11.07
2023-04-09T06:21:43.613Z,11.16
2023-04-09T06:25:56.180Z,11.30
2023-04-09T06:30:09.292Z,11.46
2023-04-09T06:34:21.709Z,11.70
2023-04-09T06:38:33.988Z,11.49
2023-04-09T06:42:47.867Z,11.53
2023-04-09T06:47:10.163Z,11.69
2023-04-09T06:51:22.506Z,11.47
2023-04-09T06:55:34.914Z,11.36
2023-04-09T06:59:47.285Z,10.97
2023-04-09T07:03:59.756Z,10.81
2023-04-09T07:08:12.781Z,11.12
2023-04-09T07:12:34.731Z,11.02
2023-04-09T07:16:47.156Z,10.81
2023-04-09T07:20:59.531Z,10.76
2023-04-09T07:25:12.916Z,10.32
2023-04-09T07:29:25.341Z,9.91
2023-04-09T07:33:38.065Z,10.31
2023-04-09T07:37:50.593Z,10.35
2023-04-09T07:42:04.692Z,9.91
2023-04-09T07:46:22.068Z,10.38
2023-04-09T07:50:34.716Z,10.38
2023-04-09T07:54:47.153Z,10.62
2023-04-09T07:58:59.668Z,11.01
2023-04-09T08:03:12.160Z,11.15
2023-04-09T08:07:24.866Z,11.29
2023-04-09T08:11:37.765Z,11.39
2023-04-09T08:15:50.151Z,11.72
2023-04-09T08:20:02.533Z,11.80
2023-04-09T08:24:17.009Z,11.90
2023-04-09T08:28:29.576Z,12.18
2023-04-09T08:32:42.045Z,12.25
2023-04-09T08:36:54.563Z,12.04
2023-04-09T08:41:07.145Z,12.46
2023-04-09T08:45:19.596Z,12.38
2023-04-09T08:49:32.060Z,11.88
2023-04-09T08:53:47.932Z,12.52
2023-04-09T08:58:00.779Z,12.16
2023-04-09T09:02:13.380Z,11.07
2023-04-09T09:06:28.955Z,10.87
2023-04-09T09:10:44.135Z,11.10
2023-04-09T09:14:56.714Z,11.70
2023-04-09T09:19:11.550Z,11.74
2023-04-09T09:23:39.458Z,11.74
2023-04-09T09:27:52.931Z,11.96
2023-04-09T09:32:14.029Z,12.17
2023-04-09T09:36:34.572Z,12.12
2023-04-09T09:40:48.055Z,11.52
2023-04-09T09:45:02.530Z,11.07
2023-04-09T09:49:15.021Z,10.86
2023-04-09T09:53:29.032Z,11.00
2023-04-09T09:57:45.142Z,11.35
2023-04-09T10:02:02.869Z,11.00
2023-04-09T10:06:16.193Z,11.67
2023-04-09T10:10:29.040Z,11.81
2023-04-09T10:14:43.039Z,11.90
2023-04-09T10:18:59.214Z,11.55
2023-04-09T10:23:35.938Z,11.40
2023-04-09T10:28:00.655Z,11.20
2023-04-09T10:32:14.196Z,11.37
2023-04-09T10:36:28.187Z,11.10
2023-04-09T10:40:58.681Z,11.33
2023-04-09T10:45:12.347Z,11.27
2023-04-09T10:49:26.876Z,11.17
2023-04-09T10:53:39.297Z,11.24
2023-04-09T10:57:51.790Z,11.03
2023-04-09T11:02:10.063Z,11.00
2023-04-09T11:06:22.856Z,11.26
2023-04-09T11:10:36.051Z,11.07
2023-04-09T11:14:48.359Z,10.83
2023-04-09T11:19:00.836Z,10.64
2023-04-09T11:23:14.502Z,10.53
2023-04-09T11:27:27.000Z,10.41
2023-04-09T11:31:39.360Z,10.39
2023-04-09T11:35:51.929Z,10.53
2023-04-09T11:40:04.694Z,10.46
2023-04-09T11:44:17.244Z,10.63
2023-04-09T11:48:30.993Z,10.88
2023-04-09T11:52:45.036Z,11.10
2023-04-09T11:57:05.746Z,11.54
2023-04-09T12:01:18.316Z,11.89
2023-04-09T12:05:32.716Z,11.99
2023-04-09T12:09:49.365Z,12.09
2023-04-09T12:14:12.861Z,12.02
2023-04-09T12:18:25.262Z,11.71
2023-04-09T12:22:41.057Z,11.79
2023-04-09T12:26:53.415Z,11.97
2023-04-09T12:31:09.655Z,12.16
2023-04-09T12:35:23.397Z,12.05
2023-04-09T12:39:35.887Z,11.69
2023-04-09T12:43:49.309Z,12.05
2023-04-09T12:48:01.873Z,12.39
2023-04-09T12:52:14.301Z,12.33
2023-04-09T12:56:28.245Z,12.02
2023-04-09T13:00:42.361Z,12.17
2023-04-09T13:04:54.859Z,12.61
2023-04-09T13:09:07.285Z,12.47
2023-04-09T13:13:19.776Z,12.13
2023-04-09T13:17:32.197Z,12.56
2023-04-09T13:21:44.685Z,12.53
2023-04-09T13:25:57.146Z,12.49
2023-04-09T13:30:09.893Z,12.78
2023-04-09T13:34:22.221Z,13.23
2023-04-09T13:38:34.727Z,13.05
2023-04-09T13:42:47.259Z,13.76
2023-04-09T13:46:59.725Z,13.93
2023-04-09T13:51:12.315Z,14.23
2023-04-09T13:55:24.731Z,14.22
2023-04-09T13:59:42.004Z,13.99
2023-04-09T14:03:54.918Z,14.65
2023-04-09T14:08:07.689Z,14.86
2023-04-09T14:12:20.099Z,14.94
2023-04-09T14:16:32.693Z,14.31
2023-04-09T14:20:45.244Z,14.99
2023-04-09T14:24:57.731Z,16.39
2023-04-09T14:29:10.148Z,15.60
2023-04-09T14:33:22.586Z,15.59
2023-04-09T14:37:34.955Z,15.03
2023-04-09T14:41:47.584Z,14.90
2023-04-09T14:46:00.006Z,14.92
2023-04-09T14:50:13.122Z,14.66
2023-04-09T14:54:25.552Z,14.30
2023-04-09T14:58:38.379Z,13.95
2023-04-09T15:02:51.280Z,13.91
2023-04-09T15:07:03.807Z,13.72
2023-04-09T15:11:17.606Z,13.34
2023-04-09T15:15:30.168Z,13.16
2023-04-09T15:19:42.783Z,13.05
2023-04-09T15:23:56.673Z,12.88
2023-04-09T15:28:09.116Z,12.67
2023-04-09T15:32:22.009Z,12.43
2023-04-09T15:36:34.845Z,12.25
2023-04-09T15:40:47.757Z,12.16
2023-04-09T15:45:02.687Z,12.11
2023-04-09T15:49:15.346Z,12.04
2023-04-09T15:53:29.463Z,12.06
2023-04-09T15:57:46.929Z,12.08
2023-04-09T16:01:59.809Z,11.98
2023-04-09T16:06:14.968Z,11.88
2023-04-09T16:10:27.587Z,11.82
2023-04-09T16:14:40.676Z,11.81
2023-04-09T16:18:53.242Z,11.76
2023-04-09T16:23:05.751Z,11.76
2023-04-09T16:27:18.238Z,11.63
2023-04-09T16:31:30.855Z,11.53
2023-04-09T16:35:43.322Z,11.54
2023-04-09T16:39:57.290Z,11.47
2023-04-09T16:44:09.595Z,11.40
2023-04-09T16:48:22.100Z,11.31
2023-04-09T16:52:36.976Z,11.06
2023-04-09T16:56:51.154Z,10.77
2023-04-09T17:01:03.872Z,10.57
2023-04-09T17:05:18.123Z,10.54
2023-04-09T17:09:31.856Z,10.59
2023-04-09T17:13:44.420Z,10.38
2023-04-09T17:17:58.764Z,10.44
2023-04-09T17:22:11.559Z,10.43
2023-04-09T17:26:25.025Z,10.48
2023-04-09T17:30:37.571Z,10.53
2023-04-09T17:34:49.875Z,10.67
2023-04-09T17:39:02.666Z,10.74
2023-04-09T17:43:15.212Z,10.71
2023-04-09T17:47:27.562Z,10.75
2023-04-09T17:51:40.032Z,10.82
2023-04-09T17:55:52.485Z,10.75
2023-04-09T18:00:08.520Z,10.73
2023-04-09T18:04:32.053Z,10.77
2023-04-09T18:08:45.054Z,10.76
2023-04-09T18:12:59.716Z,10.74
2023-04-09T18:17:12.507Z,10.71
2023-04-09T18:21:26.016Z,10.72
2023-04-09T18:25:39.448Z,10.52
2023-04-09T18:29:52.558Z,10.36
2023-04-09T18:34:04.957Z,10.16
2023-04-09T18:38:18.936Z,10.06
2023-04-09T18:42:31.539Z,10.18
2023-04-09T18:46:44.083Z,10.23
2023-04-09T18:50:56.738Z,10.00
2023-04-09T18:55:09.740Z,10.11
2023-04-09T18:59:23.394Z,10.22
2023-04-09T19:03:36.132Z,10.05
2023-04-09T19:07:48.628Z,10.20
2023-04-09T19:12:02.143Z,10.00
2023-04-09T19:16:14.712Z,9.92
2023-04-09T19:20:27.413Z,9.98
2023-04-09T19:24:39.761Z,10.01
2023-04-09T19:28:52.958Z,10.06
2023-04-09T19:33:05.706Z,10.07
2023-04-09T19:37:19.365Z,10.03
2023-04-09T19:41:32.160Z,10.07
2023-04-09T19:45:44.688Z,10.01
2023-04-09T19:49:57.502Z,10.03
2023-04-09T19:54:11.060Z,10.01
2023-04-09T19:58:24.330Z,10.09
2023-04-09T20:02:38.046Z,10.11
2023-04-09T20:06:52.010Z,10.09
2023-04-09T20:11:04.961Z,10.07
2023-04-09T20:15:20.251Z,10.10
2023-04-09T20:19:32.840Z,10.10
2023-04-09T20:23:45.901Z,10.07
2023-04-09T20:27:58.348Z,10.13
2023-04-09T20:32:10.913Z,10.16
2023-04-09T20:36:23.513Z,10.17
2023-04-09T20:40:37.542Z,10.19
2023-04-09T20:44:50.099Z,10.14
2023-04-09T20:49:04.222Z,10.12
2023-04-09T20:53:18.233Z,10.08
2023-04-09T20:57:30.630Z,10.08
2023-04-09T21:01:43.246Z,10.07
2023-04-09T21:05:55.902Z,10.06
2023-04-09T21:10:09.053Z,10.10
2023-04-09T21:14:21.676Z,10.08
2023-04-09T21:18:34.091Z,10.06
2023-04-09T21:22:46.581Z,10.14
2023-04-09T21:26:59.867Z,10.06
2023-04-09T21:31:12.582Z,10.07
2023-04-09T21:35:25.218Z,10.07
2023-04-09T21:39:37.700Z,10.25
2023-04-09T21:43:50.126Z,10.19
2023-04-09T21:48:03.236Z,10.14
2023-04-09T21:52:15.781Z,10.03
2023-04-09T21:56:28.244Z,10.03
2023-04-09T22:00:40.982Z,9.96
2023-04-09T22:04:53.348Z,9.92
2023-04-09T22:09:09.110Z,9.96
2023-04-09T22:13:21.626Z,10.02
2023-04-09T22:17:34.087Z,10.07
2023-04-09T22:21:49.891Z,9.93
2023-04-09T22:26:03.829Z,9.97
2023-04-09T22:30:16.321Z,9.96
2023-04-09T22:34:28.729Z,10.00
2023-04-09T22:38:41.270Z,10.03
2023-04-09T22:42:53.708Z,10.13
2023-04-09T22:47:06.408Z,10.11
2023-04-09T22:51:18.815Z,9.88
2023-04-09T22:55:31.584Z,9.65
2023-04-09T22:59:44.078Z,9.38
2023-04-09T23:03:56.579Z,9.38
2023-04-09T23:08:09.958Z,9.59
2023-04-09T23:12:22.421Z,9.38
2023-04-09T23:16:34.772Z,9.41
2023-04-09T23:20:47.160Z,9.45
2023-04-09T23:24:59.559Z,9.16
2023-04-09T23:29:11.993Z,9.10
2023-04-09T23:33:24.486Z,9.11
2023-04-09T23:37:37.235Z,9.04
2023-04-09T23:41:49.669Z,8.95
2023-04-09T23:46:02.263Z,9.01
2023-04-09T23:50:14.545Z,8.90
2023-04-09T23:54:27.561Z,8.87
2023-04-09T23:58:40.044Z,9.12
